sensor_id;sensor_type;location;lat;lon;timestamp;P1;durP1;ratioP1;P2;durP2;ratioP2
50012;SDS011;35901;48.694;9.476;2022-12-07T00:01:38;7.67;;;6.83;;
50012;SDS011;35901;48.694;9.476;2022-12-07T00:04:06;7.53;;;6.83;;
50012;SDS011;35901;48.694;9.476;2022-12-07T00:06:34;8.27;;;7.40;;
50012;SDS011;35901;48.694;9.476;2022-12-07T00:09:09;8.00;;;7.20;;
50012;SDS011;35901;48.694;9.476;2022-12-07T00:11:36;7.70;;;6.90;;
50012;SDS011;35901;48.694;9.476;2022-12-07T00:14:03;8.67;;;7.80;;
50012;SDS011;35901;48.694;9.476;2022-12-07T00:16:32;8.50;;;7.70;;
50012;SDS011;35901;48.694;9.476;2022-12-07T00:18:59;8.40;;;7.53;;
50012;SDS011;35901;48.694;9.476;2022-12-07T00:21:26;10.23;;;8.47;;
50012;SDS011;35901;48.694;9.476;2022-12-07T00:23:53;10.10;;;9.10;;
50012;SDS011;35901;48.694;9.476;2022-12-07T00:26:24;10.93;;;9.73;;
50012;SDS011;35901;48.694;9.476;2022-12-07T00:28:53;11.03;;;9.57;;
50012;SDS011;35901;48.694;9.476;2022-12-07T00:31:21;10.47;;;9.37;;
50012;SDS011;35901;48.694;9.476;2022-12-07T00:33:48;10.03;;;8.90;;
50012;SDS011;35901;48.694;9.476;2022-12-07T00:36:16;10.63;;;9.60;;
50012;SDS011;35901;48.694;9.476;2022-12-07T00:38:44;11.27;;;9.53;;
50012;SDS011;35901;48.694;9.476;2022-12-07T00:41:19;9.60;;;8.60;;
50012;SDS011;35901;48.694;9.476;2022-12-07T00:43:47;9.43;;;7.93;;
50012;SDS011;35901;48.694;9.476;2022-12-07T00:46:14;9.73;;;8.67;;
50012;SDS011;35901;48.694;9.476;2022-12-07T00:48:40;9.17;;;7.67;;
50012;SDS011;35901;48.694;9.476;2022-12-07T00:51:06;7.90;;;7.20;;
50012;SDS011;35901;48.694;9.476;2022-12-07T00:53:36;8.63;;;7.83;;
50012;SDS011;35901;48.694;9.476;2022-12-07T00:56:09;9.27;;;8.37;;
50012;SDS011;35901;48.694;9.476;2022-12-07T00:58:37;9.73;;;8.60;;
50012;SDS011;35901;48.694;9.476;2022-12-07T01:01:04;9.67;;;8.67;;
50012;SDS011;35901;48.694;9.476;2022-12-07T01:03:31;10.50;;;8.77;;
50012;SDS011;35901;48.694;9.476;2022-12-07T01:05:57;11.37;;;9.17;;
50012;SDS011;35901;48.694;9.476;2022-12-07T01:08:23;11.23;;;9.10;;
50012;SDS011;35901;48.694;9.476;2022-12-07T01:10:57;12.07;;;9.50;;
50012;SDS011;35901;48.694;9.476;2022-12-07T01:13:27;10.60;;;9.43;;
50012;SDS011;35901;48.694;9.476;2022-12-07T01:15:56;10.77;;;9.23;;
50012;SDS011;35901;48.694;9.476;2022-12-07T01:18:25;9.70;;;8.70;;
50012;SDS011;35901;48.694;9.476;2022-12-07T01:21:05;11.80;;;9.13;;
50012;SDS011;35901;48.694;9.476;2022-12-07T01:23:39;10.07;;;8.67;;
50012;SDS011;35901;48.694;9.476;2022-12-07T01:26:06;10.93;;;9.03;;
50012;SDS011;35901;48.694;9.476;2022-12-07T01:28:35;10.47;;;9.33;;
50012;SDS011;35901;48.694;9.476;2022-12-07T01:31:02;10.60;;;8.63;;
50012;SDS011;35901;48.694;9.476;2022-12-07T01:33:34;12.77;;;10.40;;
50012;SDS011;35901;48.694;9.476;2022-12-07T01:36:23;11.27;;;10.10;;
50012;SDS011;35901;48.694;9.476;2022-12-07T01:38:50;11.77;;;9.50;;
50012;SDS011;35901;48.694;9.476;2022-12-07T01:41:18;11.03;;;9.87;;
50012;SDS011;35901;48.694;9.476;2022-12-07T01:46:33;12.23;;;10.23;;
50012;SDS011;35901;48.694;9.476;2022-12-07T01:48:58;11.87;;;10.60;;
50012;SDS011;35901;48.694;9.476;2022-12-07T01:51:25;12.20;;;10.63;;
50012;SDS011;35901;48.694;9.476;2022-12-07T01:53:52;12.23;;;10.53;;
50012;SDS011;35901;48.694;9.476;2022-12-07T01:56:19;11.73;;;9.93;;
50012;SDS011;35901;48.694;9.476;2022-12-07T01:58:47;11.60;;;9.90;;
50012;SDS011;35901;48.694;9.476;2022-12-07T02:01:13;12.57;;;10.30;;
50012;SDS011;35901;48.694;9.476;2022-12-07T02:03:41;11.40;;;10.07;;
50012;SDS011;35901;48.694;9.476;2022-12-07T02:06:08;11.07;;;9.57;;
50012;SDS011;35901;48.694;9.476;2022-12-07T02:08:36;10.93;;;9.53;;
50012;SDS011;35901;48.694;9.476;2022-12-07T02:11:03;10.70;;;9.27;;
50012;SDS011;35901;48.694;9.476;2022-12-07T02:13:31;11.27;;;10.07;;
50012;SDS011;35901;48.694;9.476;2022-12-07T02:16:03;11.03;;;9.93;;
50012;SDS011;35901;48.694;9.476;2022-12-07T02:22:01;11.90;;;9.83;;
50012;SDS011;35901;48.694;9.476;2022-12-07T02:30:26;13.17;;;11.07;;
50012;SDS011;35901;48.694;9.476;2022-12-07T02:35:47;14.30;;;11.00;;
50012;SDS011;35901;48.694;9.476;2022-12-07T02:38:25;15.30;;;11.50;;
50012;SDS011;35901;48.694;9.476;2022-12-07T02:40:57;13.77;;;10.70;;
50012;SDS011;35901;48.694;9.476;2022-12-07T02:43:39;15.40;;;11.27;;
50012;SDS011;35901;48.694;9.476;2022-12-07T02:46:11;15.63;;;10.90;;
50012;SDS011;35901;48.694;9.476;2022-12-07T02:48:40;12.73;;;10.53;;
50012;SDS011;35901;48.694;9.476;2022-12-07T02:51:07;12.53;;;10.13;;
50012;SDS011;35901;48.694;9.476;2022-12-07T02:56:10;14.47;;;11.03;;
50012;SDS011;35901;48.694;9.476;2022-12-07T03:07:15;17.97;;;13.57;;
50012;SDS011;35901;48.694;9.476;2022-12-07T03:12:35;18.67;;;12.30;;
50012;SDS011;35901;48.694;9.476;2022-12-07T03:15:13;18.77;;;13.00;;
50012;SDS011;35901;48.694;9.476;2022-12-07T03:17:43;18.13;;;12.73;;
50012;SDS011;35901;48.694;9.476;2022-12-07T03:20:13;15.10;;;11.47;;
50012;SDS011;35901;48.694;9.476;2022-12-07T03:22:45;17.23;;;11.00;;
50012;SDS011;35901;48.694;9.476;2022-12-07T03:25:14;18.27;;;12.30;;
50012;SDS011;35901;48.694;9.476;2022-12-07T03:30:29;17.20;;;12.00;;
50012;SDS011;35901;48.694;9.476;2022-12-07T03:33:15;15.53;;;11.63;;
50012;SDS011;35901;48.694;9.476;2022-12-07T03:35:51;14.83;;;10.70;;
50012;SDS011;35901;48.694;9.476;2022-12-07T03:38:31;17.53;;;12.23;;
50012;SDS011;35901;48.694;9.476;2022-12-07T03:41:16;15.50;;;11.20;;
50012;SDS011;35901;48.694;9.476;2022-12-07T03:43:49;18.03;;;11.93;;
50012;SDS011;35901;48.694;9.476;2022-12-07T03:46:20;17.20;;;12.50;;
50012;SDS011;35901;48.694;9.476;2022-12-07T03:51:21;14.53;;;10.10;;
50012;SDS011;35901;48.694;9.476;2022-12-07T03:53:54;16.27;;;11.80;;
50012;SDS011;35901;48.694;9.476;2022-12-07T03:56:25;17.73;;;12.50;;
50012;SDS011;35901;48.694;9.476;2022-12-07T03:58:53;16.37;;;11.97;;
50012;SDS011;35901;48.694;9.476;2022-12-07T04:01:19;16.93;;;11.83;;
50012;SDS011;35901;48.694;9.476;2022-12-07T04:03:45;16.30;;;11.57;;
50012;SDS011;35901;48.694;9.476;2022-12-07T04:06:11;15.57;;;11.37;;
50012;SDS011;35901;48.694;9.476;2022-12-07T04:08:37;14.43;;;11.37;;
50012;SDS011;35901;48.694;9.476;2022-12-07T04:11:02;16.83;;;11.60;;
50012;SDS011;35901;48.694;9.476;2022-12-07T04:13:28;18.43;;;12.83;;
50012;SDS011;35901;48.694;9.476;2022-12-07T04:15:54;17.60;;;12.40;;
50012;SDS011;35901;48.694;9.476;2022-12-07T04:18:19;19.83;;;13.10;;
50012;SDS011;35901;48.694;9.476;2022-12-07T04:20:45;16.63;;;10.73;;
50012;SDS011;35901;48.694;9.476;2022-12-07T04:23:11;17.67;;;11.83;;
50012;SDS011;35901;48.694;9.476;2022-12-07T04:25:37;17.90;;;11.70;;
50012;SDS011;35901;48.694;9.476;2022-12-07T04:28:02;17.43;;;12.63;;
50012;SDS011;35901;48.694;9.476;2022-12-07T04:30:28;17.63;;;11.90;;
50012;SDS011;35901;48.694;9.476;2022-12-07T04:32:54;17.70;;;12.50;;
50012;SDS011;35901;48.694;9.476;2022-12-07T04:35:19;19.80;;;12.67;;
50012;SDS011;35901;48.694;9.476;2022-12-07T04:37:45;18.07;;;12.70;;
50012;SDS011;35901;48.694;9.476;2022-12-07T04:40:11;20.13;;;13.37;;
50012;SDS011;35901;48.694;9.476;2022-12-07T04:42:39;18.97;;;12.87;;
50012;SDS011;35901;48.694;9.476;2022-12-07T04:45:05;18.57;;;12.40;;
50012;SDS011;35901;48.694;9.476;2022-12-07T04:47:31;20.17;;;13.80;;
50012;SDS011;35901;48.694;9.476;2022-12-07T04:49:57;18.67;;;12.43;;
50012;SDS011;35901;48.694;9.476;2022-12-07T04:52:22;19.47;;;12.40;;
50012;SDS011;35901;48.694;9.476;2022-12-07T04:54:48;19.93;;;12.70;;
50012;SDS011;35901;48.694;9.476;2022-12-07T04:57:14;21.07;;;13.03;;
50012;SDS011;35901;48.694;9.476;2022-12-07T04:59:39;19.40;;;12.57;;
50012;SDS011;35901;48.694;9.476;2022-12-07T05:02:05;22.20;;;13.00;;
50012;SDS011;35901;48.694;9.476;2022-12-07T05:04:31;21.33;;;13.00;;
50012;SDS011;35901;48.694;9.476;2022-12-07T05:06:56;19.17;;;12.37;;
50012;SDS011;35901;48.694;9.476;2022-12-07T05:09:24;16.13;;;11.13;;
50012;SDS011;35901;48.694;9.476;2022-12-07T05:11:50;16.07;;;11.00;;
50012;SDS011;35901;48.694;9.476;2022-12-07T05:14:17;20.10;;;12.73;;
50012;SDS011;35901;48.694;9.476;2022-12-07T05:16:47;20.17;;;11.90;;
50012;SDS011;35901;48.694;9.476;2022-12-07T05:19:15;20.77;;;13.10;;
50012;SDS011;35901;48.694;9.476;2022-12-07T05:21:42;25.10;;;14.00;;
50012;SDS011;35901;48.694;9.476;2022-12-07T05:24:09;23.70;;;13.93;;
50012;SDS011;35901;48.694;9.476;2022-12-07T05:26:36;25.00;;;14.37;;
50012;SDS011;35901;48.694;9.476;2022-12-07T05:29:02;30.90;;;16.57;;
50012;SDS011;35901;48.694;9.476;2022-12-07T05:31:28;23.27;;;14.10;;
50012;SDS011;35901;48.694;9.476;2022-12-07T05:33:54;25.87;;;16.03;;
50012;SDS011;35901;48.694;9.476;2022-12-07T05:36:20;26.77;;;14.87;;
50012;SDS011;35901;48.694;9.476;2022-12-07T05:38:46;24.73;;;15.83;;
50012;SDS011;35901;48.694;9.476;2022-12-07T05:41:16;26.07;;;15.97;;
50012;SDS011;35901;48.694;9.476;2022-12-07T05:44:02;22.90;;;14.73;;
50012;SDS011;35901;48.694;9.476;2022-12-07T05:46:28;24.50;;;16.47;;
50012;SDS011;35901;48.694;9.476;2022-12-07T05:48:54;28.00;;;16.70;;
50012;SDS011;35901;48.694;9.476;2022-12-07T05:51:20;28.30;;;16.37;;
50012;SDS011;35901;48.694;9.476;2022-12-07T05:53:46;28.73;;;18.07;;
50012;SDS011;35901;48.694;9.476;2022-12-07T05:56:11;26.33;;;16.63;;
50012;SDS011;35901;48.694;9.476;2022-12-07T05:58:37;25.23;;;16.03;;
50012;SDS011;35901;48.694;9.476;2022-12-07T06:01:21;25.40;;;16.70;;
50012;SDS011;35901;48.694;9.476;2022-12-07T06:03:47;24.53;;;16.90;;
50012;SDS011;35901;48.694;9.476;2022-12-07T06:06:12;23.23;;;16.03;;
50012;SDS011;35901;48.694;9.476;2022-12-07T06:08:38;23.17;;;14.73;;
50012;SDS011;35901;48.694;9.476;2022-12-07T06:11:04;23.70;;;16.00;;
50012;SDS011;35901;48.694;9.476;2022-12-07T06:13:48;22.63;;;15.23;;
50012;SDS011;35901;48.694;9.476;2022-12-07T06:16:14;20.70;;;13.70;;
50012;SDS011;35901;48.694;9.476;2022-12-07T06:18:39;20.87;;;14.47;;
50012;SDS011;35901;48.694;9.476;2022-12-07T06:21:05;21.53;;;15.20;;
50012;SDS011;35901;48.694;9.476;2022-12-07T06:23:30;25.53;;;16.23;;
50012;SDS011;35901;48.694;9.476;2022-12-07T06:25:56;23.80;;;15.10;;
50012;SDS011;35901;48.694;9.476;2022-12-07T06:28:22;20.07;;;14.07;;
50012;SDS011;35901;48.694;9.476;2022-12-07T06:30:47;24.00;;;15.33;;
50012;SDS011;35901;48.694;9.476;2022-12-07T06:33:22;21.53;;;15.00;;
50012;SDS011;35901;48.694;9.476;2022-12-07T06:35:48;23.53;;;15.23;;
50012;SDS011;35901;48.694;9.476;2022-12-07T06:38:14;24.10;;;15.83;;
50012;SDS011;35901;48.694;9.476;2022-12-07T06:40:39;24.67;;;16.23;;
50012;SDS011;35901;48.694;9.476;2022-12-07T06:43:05;28.27;;;16.90;;
50012;SDS011;35901;48.694;9.476;2022-12-07T06:45:31;24.03;;;15.57;;
50012;SDS011;35901;48.694;9.476;2022-12-07T06:47:56;25.13;;;15.40;;
50012;SDS011;35901;48.694;9.476;2022-12-07T06:50:22;25.77;;;15.83;;
50012;SDS011;35901;48.694;9.476;2022-12-07T06:52:47;28.03;;;16.00;;
50012;SDS011;35901;48.694;9.476;2022-12-07T06:55:13;25.53;;;16.40;;
50012;SDS011;35901;48.694;9.476;2022-12-07T06:57:39;28.20;;;16.10;;
50012;SDS011;35901;48.694;9.476;2022-12-07T07:00:05;23.93;;;15.93;;
50012;SDS011;35901;48.694;9.476;2022-12-07T07:02:31;26.30;;;15.97;;
50012;SDS011;35901;48.694;9.476;2022-12-07T07:04:56;20.70;;;13.90;;
50012;SDS011;35901;48.694;9.476;2022-12-07T07:07:22;22.77;;;14.10;;
50012;SDS011;35901;48.694;9.476;2022-12-07T07:09:48;24.17;;;15.07;;
50012;SDS011;35901;48.694;9.476;2022-12-07T07:12:13;25.40;;;16.23;;
50012;SDS011;35901;48.694;9.476;2022-12-07T07:14:39;28.30;;;17.17;;
50012;SDS011;35901;48.694;9.476;2022-12-07T07:17:05;23.33;;;15.53;;
50012;SDS011;35901;48.694;9.476;2022-12-07T07:19:30;26.10;;;16.87;;
50012;SDS011;35901;48.694;9.476;2022-12-07T07:21:56;26.47;;;16.53;;
50012;SDS011;35901;48.694;9.476;2022-12-07T07:24:22;25.77;;;16.57;;
50012;SDS011;35901;48.694;9.476;2022-12-07T07:26:47;24.97;;;16.37;;
50012;SDS011;35901;48.694;9.476;2022-12-07T07:29:13;24.80;;;16.57;;
50012;SDS011;35901;48.694;9.476;2022-12-07T07:31:39;24.13;;;15.53;;
50012;SDS011;35901;48.694;9.476;2022-12-07T07:34:04;25.77;;;15.97;;
50012;SDS011;35901;48.694;9.476;2022-12-07T07:36:30;27.63;;;18.27;;
50012;SDS011;35901;48.694;9.476;2022-12-07T07:38:56;21.30;;;14.87;;
50012;SDS011;35901;48.694;9.476;2022-12-07T07:41:21;23.87;;;15.73;;
50012;SDS011;35901;48.694;9.476;2022-12-07T07:43:47;21.10;;;14.10;;
50012;SDS011;35901;48.694;9.476;2022-12-07T07:46:15;24.17;;;15.80;;
50012;SDS011;35901;48.694;9.476;2022-12-07T07:48:41;23.00;;;16.30;;
50012;SDS011;35901;48.694;9.476;2022-12-07T07:51:07;23.63;;;16.13;;
50012;SDS011;35901;48.694;9.476;2022-12-07T07:53:33;22.17;;;15.53;;
50012;SDS011;35901;48.694;9.476;2022-12-07T07:55:59;21.13;;;15.13;;
50012;SDS011;35901;48.694;9.476;2022-12-07T07:58:24;23.20;;;15.27;;
50012;SDS011;35901;48.694;9.476;2022-12-07T08:00:50;22.03;;;15.27;;
50012;SDS011;35901;48.694;9.476;2022-12-07T08:03:16;27.10;;;17.97;;
50012;SDS011;35901;48.694;9.476;2022-12-07T08:05:42;22.40;;;15.53;;
50012;SDS011;35901;48.694;9.476;2022-12-07T08:08:08;22.87;;;15.27;;
50012;SDS011;35901;48.694;9.476;2022-12-07T08:10:34;18.83;;;13.73;;
50012;SDS011;35901;48.694;9.476;2022-12-07T08:13:00;20.37;;;14.57;;
50012;SDS011;35901;48.694;9.476;2022-12-07T08:15:43;21.10;;;15.43;;
50012;SDS011;35901;48.694;9.476;2022-12-07T08:18:11;17.47;;;13.20;;
50012;SDS011;35901;48.694;9.476;2022-12-07T08:20:38;17.77;;;13.57;;
50012;SDS011;35901;48.694;9.476;2022-12-07T08:23:05;15.47;;;12.80;;
50012;SDS011;35901;48.694;9.476;2022-12-07T08:25:31;16.23;;;12.63;;
50012;SDS011;35901;48.694;9.476;2022-12-07T08:27:58;15.53;;;11.77;;
50012;SDS011;35901;48.694;9.476;2022-12-07T08:30:25;16.57;;;13.53;;
50012;SDS011;35901;48.694;9.476;2022-12-07T08:32:52;20.30;;;18.10;;
50012;SDS011;35901;48.694;9.476;2022-12-07T08:35:18;23.23;;;20.13;;
50012;SDS011;35901;48.694;9.476;2022-12-07T08:37:44;21.50;;;18.50;;
50012;SDS011;35901;48.694;9.476;2022-12-07T08:40:10;18.50;;;15.57;;
50012;SDS011;35901;48.694;9.476;2022-12-07T08:42:40;18.63;;;14.47;;
50012;SDS011;35901;48.694;9.476;2022-12-07T08:45:14;16.17;;;12.40;;
50012;SDS011;35901;48.694;9.476;2022-12-07T08:47:41;16.30;;;12.30;;
50012;SDS011;35901;48.694;9.476;2022-12-07T08:50:19;13.93;;;11.20;;
50012;SDS011;35901;48.694;9.476;2022-12-07T08:52:48;14.27;;;10.80;;
50012;SDS011;35901;48.694;9.476;2022-12-07T08:55:16;12.00;;;10.57;;
50012;SDS011;35901;48.694;9.476;2022-12-07T08:57:42;13.30;;;11.20;;
50012;SDS011;35901;48.694;9.476;2022-12-07T09:00:08;12.53;;;10.33;;
50012;SDS011;35901;48.694;9.476;2022-12-07T09:02:34;12.97;;;10.40;;
50012;SDS011;35901;48.694;9.476;2022-12-07T09:05:00;14.97;;;10.83;;
50012;SDS011;35901;48.694;9.476;2022-12-07T09:07:26;13.33;;;9.80;;
50012;SDS011;35901;48.694;9.476;2022-12-07T09:09:52;11.47;;;9.20;;
50012;SDS011;35901;48.694;9.476;2022-12-07T09:12:18;12.13;;;8.73;;
50012;SDS011;35901;48.694;9.476;2022-12-07T09:14:43;9.67;;;8.67;;
50012;SDS011;35901;48.694;9.476;2022-12-07T09:17:11;10.23;;;8.87;;
50012;SDS011;35901;48.694;9.476;2022-12-07T09:19:37;9.77;;;8.77;;
50012;SDS011;35901;48.694;9.476;2022-12-07T09:22:03;10.70;;;8.57;;
50012;SDS011;35901;48.694;9.476;2022-12-07T09:24:30;9.83;;;8.50;;
50012;SDS011;35901;48.694;9.476;2022-12-07T09:26:56;9.87;;;8.07;;
50012;SDS011;35901;48.694;9.476;2022-12-07T09:29:23;12.43;;;8.40;;
50012;SDS011;35901;48.694;9.476;2022-12-07T09:31:49;8.70;;;7.70;;
50012;SDS011;35901;48.694;9.476;2022-12-07T09:34:14;9.57;;;7.57;;
50012;SDS011;35901;48.694;9.476;2022-12-07T09:36:40;8.73;;;7.67;;
50012;SDS011;35901;48.694;9.476;2022-12-07T09:39:07;8.70;;;7.53;;
50012;SDS011;35901;48.694;9.476;2022-12-07T09:41:33;9.67;;;7.80;;
50012;SDS011;35901;48.694;9.476;2022-12-07T09:44:10;9.90;;;8.00;;
50012;SDS011;35901;48.694;9.476;2022-12-07T09:46:39;10.13;;;7.43;;
50012;SDS011;35901;48.694;9.476;2022-12-07T09:49:14;9.10;;;7.37;;
50012;SDS011;35901;48.694;9.476;2022-12-07T09:51:44;8.80;;;7.50;;
50012;SDS011;35901;48.694;9.476;2022-12-07T09:54:12;8.30;;;6.97;;
50012;SDS011;35901;48.694;9.476;2022-12-07T09:56:39;8.20;;;7.30;;
50012;SDS011;35901;48.694;9.476;2022-12-07T09:59:05;7.43;;;6.60;;
50012;SDS011;35901;48.694;9.476;2022-12-07T10:01:37;7.97;;;6.80;;
50012;SDS011;35901;48.694;9.476;2022-12-07T10:06:36;7.60;;;6.63;;
50012;SDS011;35901;48.694;9.476;2022-12-07T10:09:02;7.97;;;7.10;;
50012;SDS011;35901;48.694;9.476;2022-12-07T10:11:33;9.70;;;7.00;;
50012;SDS011;35901;48.694;9.476;2022-12-07T10:14:10;7.97;;;7.10;;
50012;SDS011;35901;48.694;9.476;2022-12-07T10:16:40;8.53;;;7.30;;
50012;SDS011;35901;48.694;9.476;2022-12-07T10:24:37;8.50;;;7.40;;
50012;SDS011;35901;48.694;9.476;2022-12-07T10:27:04;7.43;;;6.27;;
50012;SDS011;35901;48.694;9.476;2022-12-07T10:29:34;7.40;;;6.10;;
50012;SDS011;35901;48.694;9.476;2022-12-07T10:32:04;7.13;;;6.43;;
50012;SDS011;35901;48.694;9.476;2022-12-07T10:34:32;7.20;;;6.43;;
50012;SDS011;35901;48.694;9.476;2022-12-07T10:39:42;7.63;;;6.83;;
50012;SDS011;35901;48.694;9.476;2022-12-07T10:42:29;7.40;;;6.60;;
50012;SDS011;35901;48.694;9.476;2022-12-07T10:59:09;6.77;;;6.07;;
50012;SDS011;35901;48.694;9.476;2022-12-07T11:04:28;7.77;;;6.90;;
50012;SDS011;35901;48.694;9.476;2022-12-07T11:18:31;6.77;;;5.80;;
50012;SDS011;35901;48.694;9.476;2022-12-07T11:26:41;6.77;;;6.00;;
50012;SDS011;35901;48.694;9.476;2022-12-07T11:37:35;7.80;;;6.63;;
50012;SDS011;35901;48.694;9.476;2022-12-07T11:40:17;6.90;;;6.20;;
50012;SDS011;35901;48.694;9.476;2022-12-07T11:42:59;7.10;;;6.00;;
50012;SDS011;35901;48.694;9.476;2022-12-07T11:45:37;7.57;;;6.67;;
50012;SDS011;35901;48.694;9.476;2022-12-07T11:50:40;7.47;;;5.93;;
50012;SDS011;35901;48.694;9.476;2022-12-07T11:53:26;6.97;;;5.90;;
50012;SDS011;35901;48.694;9.476;2022-12-07T11:56:13;7.53;;;6.73;;
50012;SDS011;35901;48.694;9.476;2022-12-07T11:58:52;7.27;;;6.00;;
50012;SDS011;35901;48.694;9.476;2022-12-07T12:06:39;6.73;;;5.47;;
50012;SDS011;35901;48.694;9.476;2022-12-07T12:09:16;8.20;;;5.87;;
50012;SDS011;35901;48.694;9.476;2022-12-07T12:19:33;7.43;;;6.33;;
50012;SDS011;35901;48.694;9.476;2022-12-07T12:22:12;7.80;;;6.27;;
50012;SDS011;35901;48.694;9.476;2022-12-07T12:24:44;7.03;;;5.77;;
50012;SDS011;35901;48.694;9.476;2022-12-07T12:27:26;6.53;;;5.83;;
50012;SDS011;35901;48.694;9.476;2022-12-07T12:29:57;7.93;;;6.77;;
50012;SDS011;35901;48.694;9.476;2022-12-07T12:32:38;6.87;;;5.70;;
50012;SDS011;35901;48.694;9.476;2022-12-07T12:37:51;8.63;;;6.83;;
50012;SDS011;35901;48.694;9.476;2022-12-07T12:42:48;6.90;;;6.20;;
50012;SDS011;35901;48.694;9.476;2022-12-07T12:48:06;7.17;;;6.47;;
50012;SDS011;35901;48.694;9.476;2022-12-07T12:54:10;7.43;;;5.83;;
50012;SDS011;35901;48.694;9.476;2022-12-07T12:56:43;6.10;;;5.50;;
50012;SDS011;35901;48.694;9.476;2022-12-07T13:01:47;8.53;;;6.60;;
50012;SDS011;35901;48.694;9.476;2022-12-07T13:04:21;11.50;;;8.20;;
50012;SDS011;35901;48.694;9.476;2022-12-07T13:06:50;17.73;;;10.87;;
50012;SDS011;35901;48.694;9.476;2022-12-07T13:09:17;17.80;;;11.67;;
50012;SDS011;35901;48.694;9.476;2022-12-07T13:11:49;13.37;;;9.07;;
50012;SDS011;35901;48.694;9.476;2022-12-07T13:14:41;9.37;;;7.70;;
50012;SDS011;35901;48.694;9.476;2022-12-07T13:19:58;7.63;;;6.37;;
50012;SDS011;35901;48.694;9.476;2022-12-07T13:28:40;6.57;;;5.90;;
50012;SDS011;35901;48.694;9.476;2022-12-07T13:30:53;6.90;;;6.20;;
50012;SDS011;35901;48.694;9.476;2022-12-07T13:33:28;8.90;;;6.83;;
50012;SDS011;35901;48.694;9.476;2022-12-07T13:35:55;7.50;;;6.00;;
50012;SDS011;35901;48.694;9.476;2022-12-07T13:38:28;6.53;;;5.90;;
50012;SDS011;35901;48.694;9.476;2022-12-07T13:41:16;7.10;;;6.40;;
50012;SDS011;35901;48.694;9.476;2022-12-07T13:46:10;7.30;;;6.47;;
50012;SDS011;35901;48.694;9.476;2022-12-07T13:48:51;6.93;;;6.20;;
50012;SDS011;35901;48.694;9.476;2022-12-07T13:51:18;9.87;;;6.90;;
50012;SDS011;35901;48.694;9.476;2022-12-07T13:53:52;6.90;;;5.87;;
50012;SDS011;35901;48.694;9.476;2022-12-07T13:56:31;7.23;;;5.70;;
50012;SDS011;35901;48.694;9.476;2022-12-07T13:58:58;6.67;;;5.90;;
50012;SDS011;35901;48.694;9.476;2022-12-07T14:01:25;6.93;;;5.97;;
50012;SDS011;35901;48.694;9.476;2022-12-07T14:03:51;6.57;;;5.97;;
50012;SDS011;35901;48.694;9.476;2022-12-07T14:09:14;5.90;;;5.03;;
50012;SDS011;35901;48.694;9.476;2022-12-07T14:11:45;5.50;;;4.83;;
50012;SDS011;35901;48.694;9.476;2022-12-07T14:14:14;6.10;;;5.43;;
50012;SDS011;35901;48.694;9.476;2022-12-07T14:16:43;5.80;;;5.20;;
50012;SDS011;35901;48.694;9.476;2022-12-07T14:22:53;6.10;;;5.20;;
50012;SDS011;35901;48.694;9.476;2022-12-07T14:27:39;6.77;;;6.07;;
50012;SDS011;35901;48.694;9.476;2022-12-07T14:30:15;7.53;;;6.77;;
50012;SDS011;35901;48.694;9.476;2022-12-07T14:32:43;7.03;;;6.00;;
50012;SDS011;35901;48.694;9.476;2022-12-07T14:35:14;7.07;;;6.37;;
50012;SDS011;35901;48.694;9.476;2022-12-07T14:37:43;7.37;;;6.47;;
50012;SDS011;35901;48.694;9.476;2022-12-07T14:40:15;8.57;;;6.23;;
50012;SDS011;35901;48.694;9.476;2022-12-07T14:42:43;9.30;;;7.63;;
50012;SDS011;35901;48.694;9.476;2022-12-07T14:45:13;7.77;;;6.97;;
50012;SDS011;35901;48.694;9.476;2022-12-07T14:47:40;7.87;;;7.07;;
50012;SDS011;35901;48.694;9.476;2022-12-07T14:50:06;7.13;;;6.43;;
50012;SDS011;35901;48.694;9.476;2022-12-07T14:52:33;9.07;;;6.97;;
50012;SDS011;35901;48.694;9.476;2022-12-07T14:54:59;7.43;;;6.43;;
50012;SDS011;35901;48.694;9.476;2022-12-07T14:57:24;9.67;;;7.30;;
50012;SDS011;35901;48.694;9.476;2022-12-07T14:59:50;7.03;;;6.13;;
50012;SDS011;35901;48.694;9.476;2022-12-07T15:02:16;8.67;;;6.90;;
50012;SDS011;35901;48.694;9.476;2022-12-07T15:04:41;8.40;;;6.17;;
50012;SDS011;35901;48.694;9.476;2022-12-07T15:07:20;9.83;;;6.77;;
50012;SDS011;35901;48.694;9.476;2022-12-07T15:09:46;8.37;;;6.67;;
50012;SDS011;35901;48.694;9.476;2022-12-07T15:12:13;6.83;;;6.03;;
50012;SDS011;35901;48.694;9.476;2022-12-07T15:14:39;10.23;;;7.33;;
50012;SDS011;35901;48.694;9.476;2022-12-07T15:17:05;8.43;;;7.30;;
50012;SDS011;35901;48.694;9.476;2022-12-07T15:19:31;7.30;;;6.27;;
50012;SDS011;35901;48.694;9.476;2022-12-07T15:21:57;7.97;;;6.63;;
50012;SDS011;35901;48.694;9.476;2022-12-07T15:24:24;6.63;;;5.93;;
50012;SDS011;35901;48.694;9.476;2022-12-07T15:26:50;9.53;;;7.30;;
50012;SDS011;35901;48.694;9.476;2022-12-07T15:29:17;7.27;;;6.50;;
50012;SDS011;35901;48.694;9.476;2022-12-07T15:31:43;9.33;;;7.67;;
50012;SDS011;35901;48.694;9.476;2022-12-07T15:34:09;8.60;;;7.20;;
50012;SDS011;35901;48.694;9.476;2022-12-07T15:36:34;8.50;;;6.53;;
50012;SDS011;35901;48.694;9.476;2022-12-07T15:39:00;8.30;;;6.63;;
50012;SDS011;35901;48.694;9.476;2022-12-07T15:41:26;8.93;;;6.80;;
50012;SDS011;35901;48.694;9.476;2022-12-07T15:43:52;8.47;;;7.00;;
50012;SDS011;35901;48.694;9.476;2022-12-07T15:46:38;8.70;;;6.93;;
50012;SDS011;35901;48.694;9.476;2022-12-07T15:49:07;7.97;;;6.73;;
50012;SDS011;35901;48.694;9.476;2022-12-07T15:51:38;8.60;;;7.00;;
50012;SDS011;35901;48.694;9.476;2022-12-07T15:54:04;9.10;;;6.57;;
50012;SDS011;35901;48.694;9.476;2022-12-07T15:56:30;7.73;;;6.73;;
50012;SDS011;35901;48.694;9.476;2022-12-07T15:58:56;8.23;;;6.80;;
50012;SDS011;35901;48.694;9.476;2022-12-07T16:01:22;9.67;;;7.20;;
50012;SDS011;35901;48.694;9.476;2022-12-07T16:03:47;9.30;;;7.40;;
50012;SDS011;35901;48.694;9.476;2022-12-07T16:06:16;11.03;;;8.23;;
50012;SDS011;35901;48.694;9.476;2022-12-07T16:08:46;10.57;;;8.60;;
50012;SDS011;35901;48.694;9.476;2022-12-07T16:11:12;9.47;;;7.60;;
50012;SDS011;35901;48.694;9.476;2022-12-07T16:13:39;8.13;;;7.27;;
50012;SDS011;35901;48.694;9.476;2022-12-07T16:16:05;12.23;;;8.63;;
50012;SDS011;35901;48.694;9.476;2022-12-07T16:18:32;9.60;;;8.20;;
50012;SDS011;35901;48.694;9.476;2022-12-07T16:20:58;10.63;;;8.53;;
50012;SDS011;35901;48.694;9.476;2022-12-07T16:23:24;10.13;;;8.57;;
50012;SDS011;35901;48.694;9.476;2022-12-07T16:25:51;10.30;;;8.50;;
50012;SDS011;35901;48.694;9.476;2022-12-07T16:28:17;14.03;;;11.17;;
50012;SDS011;35901;48.694;9.476;2022-12-07T16:30:46;11.60;;;8.27;;
50012;SDS011;35901;48.694;9.476;2022-12-07T16:33:12;12.07;;;9.33;;
50012;SDS011;35901;48.694;9.476;2022-12-07T16:35:38;10.83;;;9.67;;
50012;SDS011;35901;48.694;9.476;2022-12-07T16:38:06;12.80;;;9.30;;
50012;SDS011;35901;48.694;9.476;2022-12-07T16:40:32;14.83;;;12.73;;
50012;SDS011;35901;48.694;9.476;2022-12-07T16:42:58;18.63;;;15.07;;
50012;SDS011;35901;48.694;9.476;2022-12-07T16:45:24;18.20;;;13.60;;
50012;SDS011;35901;48.694;9.476;2022-12-07T16:47:49;13.83;;;10.90;;
50012;SDS011;35901;48.694;9.476;2022-12-07T16:50:15;11.00;;;9.77;;
50012;SDS011;35901;48.694;9.476;2022-12-07T16:52:41;13.30;;;10.40;;
50012;SDS011;35901;48.694;9.476;2022-12-07T16:55:07;12.07;;;9.33;;
50012;SDS011;35901;48.694;9.476;2022-12-07T16:57:32;11.60;;;10.03;;
50012;SDS011;35901;48.694;9.476;2022-12-07T16:59:58;11.53;;;9.93;;